DURO2: Washita River Durwood, OK

                                SHEF ID:       DURO2     Washita River near Dickson, OK
STATION TYPE:
Regulating: Stage = 27.00, Flow = 32534

PRECIP PRECIP(A) STAGE STAGE(2) RIV-FLOW BAT-LOAD
in in ft ft cfs volt
Ccp-Rev Ccp-Rev Ccp-Rev Ccp-Rev Ccp-Rev Ccp-Rev
(America/Chicago)
05/02 00:00 0.00 ---- 8.24 8.22 689 12.40
05/02 01:00 0.00 ---- 8.22 8.21 679 12.36
05/02 02:00 0.00 ---- 8.21 8.20 674 12.34
05/02 03:00 0.00 ---- 8.20 8.18 669 12.31
05/02 04:00 0.00 ---- 8.20 8.18 669 12.30
05/02 05:00 0.00 ---- 8.19 8.18 664 12.26
05/02 06:00 0.00 ---- 8.19 8.17 664 12.23
05/02 07:00 0.00 ---- 8.18 8.17 660 12.21
05/02 08:00 0.00 ---- 8.18 8.17 660 12.25
05/02 09:00 0.00 ---- 8.18 8.17 660 12.42
05/02 10:00 0.00 ---- 8.18 8.16 660 12.50
05/02 11:00 0.00 ---- 8.17 8.16 655 12.60
05/02 12:00 0.00 ---- 8.14 8.14 641 12.68
05/02 13:00 0.00 ---- 8.15 8.14 645 12.73
05/02 14:00 0.00 ---- 8.14 8.13 641 12.81
05/02 15:00 0.00 ---- 8.13 8.12 636 13.05
05/02 16:00 0.00 ---- 8.12 8.11 631 13.04
05/02 17:00 0.00 ---- 8.11 8.10 626 13.13
05/02 18:00 0.00 ---- 8.11 8.09 626 12.90
05/02 19:00 0.00 ---- 8.10 8.08 622 12.93
05/02 20:00 0.00 ---- 8.10 8.09 622 12.83
05/02 21:00 0.00 ---- 8.09 8.08 617 12.55
05/02 22:00 0.00 ---- 8.09 8.08 617 12.46
05/02 23:00 0.00 ---- 8.09 8.08 617 12.42
Data processed at Sun 03May2026 04:36 GMT

NOTICE: If you are parsing this page

Please convert to using our Data API. Starting early 2026 we will be migrating to: https://water.usace.army.mil with modern pages rendered in JavaScript. When this migration completes you will no longer be able to scrape this page! CWMSDataAPI (CDA)

Timeseries IDs (TSIDs)

TSIDs used from left to right in the data table
DICK.Precip-Inc.Total.1Hour.1Hour.Ccp-Rev
DICK.Precip-Inc Alt.Total.1Hour.1Hour.Ccp-Rev
DICK.Stage.Inst.1Hour.0.Ccp-Rev
DICK.Flow.Inst.1Hour.0.Ccp-Rev
DICK.Volt-Battery Load.Inst.1Hour.0.Ccp-Rev

                            

All information presented herein is the property of the government of the United States of America and may be revised or deleted at any time without prior notice. Dissemination of this information without the expressed written consent of the Public Affairs Office, Tulsa District U.S. Army Corps of Engineers is strictly prohibited. These data are gathered electronically and, as presented, have NOT undergone any form of quality control. These data are NOT guaranteed to be valid or correct.